Time;durP1;ratioP1;P1;durP2;ratioP2;P2;SDS_P1;SDS_P2;PMS_P1;PMS_P2;Temp;Humidity;BMP_temperature;BMP_pressure;BME280_temperature;BME280_humidity;BME280_pressure;Samples;Min_cycle;Max_cycle;Signal;HPM_P1;HPM_P2
2022/07/23 00:01:50;;;;;;;13.07;7.50;;;20.30;99.90;;;20.65;90.44;101140.38;5249794;28;20063;-74
2022/07/23 00:04:22;;;;;;;10.93;5.95;;;20.30;99.90;;;20.64;90.48;101149.22;5232028;28;20045;-74
2022/07/23 00:06:54;;;;;;;10.63;6.15;;;20.30;99.90;;;20.65;90.73;101145.69;5249921;28;20051;-73
2022/07/23 00:09:28;;;;;;;11.68;7.03;;;20.30;99.90;;;20.65;90.76;101155.41;5231655;28;20418;-74
2022/07/23 00:12:00;;;;;;;10.02;5.95;;;20.30;99.90;;;20.64;90.78;101151.88;5249478;28;20044;-74
2022/07/23 00:14:32;;;;;;;13.15;7.18;;;20.30;99.90;;;20.62;90.79;101150.13;5231852;28;20055;-74
2022/07/23 00:17:06;;;;;;;12.05;6.32;;;20.30;99.90;;;20.61;90.96;101146.59;5249733;28;20094;-74
2022/07/23 00:19:38;;;;;;;11.48;7.20;;;20.20;99.90;;;20.59;91.12;101148.34;5249582;28;20127;-73
2022/07/23 00:22:10;;;;;;;13.23;7.03;;;20.20;99.90;;;20.58;91.16;101143.94;5249532;28;20036;-73
2022/07/23 00:24:42;;;;;;;11.20;6.90;;;20.20;99.90;;;20.56;91.50;101145.72;5249502;28;20067;-72
2022/07/23 00:27:14;;;;;;;14.02;6.85;;;20.20;99.90;;;20.54;91.58;101148.38;5249199;28;20553;-74
2022/07/23 00:29:47;;;;;;;12.98;6.63;;;20.20;99.90;;;20.54;91.77;101147.47;5249386;28;20131;-74
2022/07/23 00:32:20;;;;;;;11.57;6.30;;;20.20;99.90;;;20.55;91.92;101141.31;5231290;28;20048;-73
2022/07/23 00:34:52;;;;;;;11.48;6.38;;;20.20;99.90;;;20.53;91.88;101146.56;5231155;28;20048;-74
2022/07/23 00:37:24;;;;;;;10.70;6.70;;;20.10;99.90;;;20.51;92.14;101140.41;5230960;28;20048;-74
2022/07/23 00:39:57;;;;;;;14.73;8.48;;;20.10;99.90;;;20.50;92.33;101129.81;5249194;28;20052;-74
2022/07/23 00:42:29;;;;;;;12.02;6.78;;;20.10;99.90;;;20.50;92.70;101135.13;5231227;28;20048;-74
2022/07/23 00:45:01;;;;;;;11.52;6.47;;;20.10;99.90;;;20.49;92.54;101143.94;5231043;28;20040;-73
2022/07/23 00:47:35;;;;;;;12.93;6.90;;;20.10;99.90;;;20.47;92.40;101157.16;5248882;28;20123;-72
2022/07/23 00:50:09;;;;;;;12.82;7.03;;;20.10;99.90;;;20.46;92.71;101158.06;5230644;28;20044;-73
2022/07/23 00:52:42;;;;;;;12.50;6.30;;;20.10;99.90;;;20.44;92.93;101151.84;5230814;28;20063;-74
2022/07/23 00:55:15;;;;;;;14.38;7.57;;;20.10;99.90;;;20.42;93.02;101158.03;5248870;28;20055;-74
2022/07/23 00:57:48;;;;;;;13.32;7.18;;;20.10;99.90;;;20.40;93.27;101157.13;5230750;28;20048;-74
2022/07/23 01:00:20;;;;;;;12.45;7.22;;;20.10;99.90;;;20.40;93.10;101155.38;5230588;28;20062;-74
2022/07/23 01:02:54;;;;;;;12.63;7.75;;;20.00;99.90;;;20.40;93.20;101159.78;5230722;28;20098;-73
2022/07/23 01:05:26;;;;;;;12.73;6.75;;;20.00;99.90;;;20.40;93.33;101142.13;5230898;28;20049;-74
2022/07/23 01:07:59;;;;;;;11.80;6.13;;;20.10;99.90;;;20.39;93.56;101139.50;5230405;28;20088;-73
2022/07/23 01:10:34;;;;;;;11.93;6.60;;;20.10;99.90;;;20.40;93.94;101142.13;5230265;28;20152;-73
2022/07/23 01:13:09;;;;;;;12.32;6.50;;;20.00;99.90;;;20.39;94.21;101142.13;5248869;28;20500;-74
2022/07/23 01:15:42;;;;;;;15.05;7.63;;;20.00;99.90;;;20.39;94.27;101158.91;5230582;28;20102;-75
2022/07/23 01:18:15;;;;;;;11.07;6.65;;;20.00;99.90;;;20.37;94.50;101149.22;5230296;28;20050;-74
2022/07/23 01:20:49;;;;;;;12.95;6.70;;;20.00;99.90;;;20.36;94.58;101144.81;5230114;28;20102;-74
2022/07/23 01:23:22;;;;;;;12.68;7.38;;;20.00;99.90;;;20.35;94.79;101140.41;5230614;28;20045;-74
2022/07/23 01:25:59;;;;;;;11.77;6.60;;;20.00;99.90;;;20.33;95.19;101128.00;5230536;28;20048;-73
2022/07/23 01:28:33;;;;;;;15.05;7.85;;;20.00;99.90;;;20.31;95.12;101132.44;5229950;28;20183;-74
2022/07/23 01:31:05;;;;;;;13.65;7.68;;;19.90;99.90;;;20.29;95.03;101128.91;5247758;28;20040;-73
2022/07/23 01:33:41;;;;;;;13.90;7.60;;;19.90;99.90;;;20.28;95.04;101124.50;5230386;28;20056;-74
2022/07/23 01:36:13;;;;;;;11.85;6.68;;;19.90;99.90;;;20.27;95.04;101125.34;5248001;28;20048;-74
2022/07/23 01:38:47;;;;;;;12.43;6.97;;;19.90;99.90;;;20.24;95.45;101114.78;5229772;28;20068;-74
2022/07/23 01:41:19;;;;;;;13.43;7.65;;;19.90;99.90;;;20.20;95.83;101120.94;5229829;28;20048;-74
2022/07/23 01:43:52;;;;;;;12.07;6.53;;;19.80;99.90;;;20.17;95.95;101120.09;5229936;28;20456;-73
2022/07/23 01:46:24;;;;;;;11.77;6.50;;;19.80;99.90;;;20.16;96.56;101118.31;5247837;28;20071;-74
2022/07/23 01:48:56;;;;;;;11.68;6.22;;;19.80;99.90;;;20.14;96.81;101136.81;5229730;28;20048;-74
2022/07/23 01:54:51;;;;;;;12.73;6.63;;;19.80;99.90;;;20.04;97.33;101127.13;5286215;27;20380;-74
2022/07/23 01:57:23;;;;;;;11.45;6.25;;;19.70;99.90;;;20.02;97.68;101121.84;5263772;28;20047;-73
2022/07/23 01:59:55;;;;;;;15.70;6.78;;;19.70;99.90;;;20.02;97.89;101124.47;5264069;28;20051;-74
2022/07/23 02:02:28;;;;;;;12.23;6.25;;;19.70;99.90;;;20.03;98.10;101125.38;5263861;28;20052;-74
2022/07/23 02:05:00;;;;;;;12.30;6.32;;;19.70;99.90;;;20.04;98.18;101137.72;5265047;28;20124;-73
2022/07/23 02:07:32;;;;;;;12.98;6.80;;;19.70;99.90;;;20.01;98.16;101132.41;5264861;28;20130;-74
2022/07/23 02:10:08;;;;;;;11.00;5.80;;;19.70;99.90;;;19.98;98.30;101130.63;5263763;28;20054;-74
2022/07/23 02:12:43;;;;;;;11.68;6.22;;;19.70;99.90;;;19.98;98.40;101127.13;5263571;28;20040;-73
2022/07/23 02:15:15;;;;;;;10.70;5.80;;;19.60;99.90;;;19.98;98.77;101121.81;5263636;28;20049;-73
2022/07/23 02:17:48;;;;;;;11.85;6.30;;;19.60;99.90;;;19.96;100.00;101115.66;5263262;28;20109;-73
2022/07/23 02:20:20;;;;;;;10.77;6.57;;;19.60;99.90;;;19.95;100.00;101112.13;5263499;28;20412;-74
2022/07/23 02:22:52;;;;;;;12.00;6.35;;;19.60;99.90;;;19.92;100.00;101113.88;5263379;28;20047;-73
2022/07/23 02:25:26;;;;;;;11.95;6.47;;;19.60;99.90;;;19.87;100.00;101113.84;5263521;28;20044;-74
2022/07/23 02:28:04;;;;;;;12.05;6.13;;;19.50;99.90;;;19.84;100.00;101110.34;5263168;28;20040;-74
2022/07/23 02:30:37;;;;;;;10.95;5.63;;;19.50;99.90;;;19.81;100.00;101120.91;5263220;28;20052;-74
2022/07/23 02:33:10;;;;;;;11.25;6.22;;;19.50;99.90;;;19.75;100.00;101112.06;5263254;28;20051;-74
2022/07/23 02:35:42;;;;;;;12.23;6.20;;;19.40;99.90;;;19.72;100.00;101129.72;5263167;28;20040;-74
2022/07/23 02:38:14;;;;;;;10.73;5.95;;;19.40;99.90;;;19.67;100.00;101113.81;5264243;28;20561;-74
2022/07/23 02:40:48;;;;;;;12.82;6.82;;;19.40;99.90;;;19.66;100.00;101116.47;5263146;28;20059;-74
2022/07/23 02:43:20;;;;;;;10.20;5.88;;;19.30;99.90;;;19.62;100.00;101112.03;5264343;28;20502;-74
2022/07/23 02:45:52;;;;;;;11.25;5.75;;;19.30;99.90;;;19.59;100.00;101115.56;5263071;28;20051;-74
2022/07/23 02:48:24;;;;;;;11.70;6.07;;;19.20;99.90;;;19.56;100.00;101110.25;5262709;28;20068;-75
2022/07/23 02:50:57;;;;;;;11.35;6.43;;;19.20;99.90;;;19.53;100.00;101105.81;5262893;28;20055;-74
2022/07/23 02:53:34;;;;;;;13.02;6.15;;;19.20;99.90;;;19.51;100.00;101104.06;5262798;28;20128;-73
2022/07/23 02:56:07;;;;;;;12.93;7.25;;;19.20;99.90;;;19.49;100.00;101103.16;5262985;28;20453;-74
2022/07/23 02:58:39;;;;;;;13.48;6.13;;;19.10;99.90;;;19.49;100.00;101111.97;5262532;28;20055;-74
2022/07/23 03:01:12;;;;;;;12.00;6.05;;;19.10;99.90;;;19.48;100.00;101102.25;5262635;28;20051;-74
2022/07/23 03:03:44;;;;;;;11.57;5.88;;;19.10;99.90;;;19.49;100.00;101105.78;5262495;28;20045;-73
2022/07/23 03:06:16;;;;;;;11.02;5.97;;;19.10;99.90;;;19.46;100.00;101108.44;5249481;28;20037;-73
2022/07/23 03:08:48;;;;;;;13.93;7.47;;;19.10;99.90;;;19.44;100.00;101107.56;5249709;28;20080;-74
2022/07/23 03:11:22;;;;;;;12.60;7.03;;;19.10;99.90;;;19.40;100.00;101111.06;5248762;28;20045;-73
2022/07/23 03:13:54;;;;;;;12.05;6.22;;;19.00;99.90;;;19.37;100.00;101113.69;5248587;28;20045;-74
2022/07/23 03:16:26;;;;;;;11.93;6.05;;;19.00;99.90;;;19.35;100.00;101111.03;5248511;28;20091;-74
2022/07/23 03:18:59;;;;;;;11.80;6.07;;;19.00;99.90;;;19.36;100.00;101117.19;5248125;28;20049;-74
2022/07/23 03:21:33;;;;;;;12.05;5.75;;;19.00;99.90;;;19.34;100.00;101111.91;5248378;28;20052;-74
2022/07/23 03:24:06;;;;;;;12.82;6.43;;;19.00;99.90;;;19.32;100.00;101110.16;5248392;28;20049;-73
2022/07/23 03:26:40;;;;;;;11.88;6.20;;;19.00;99.90;;;19.30;100.00;101112.78;5248278;28;20084;-75
2022/07/23 03:29:13;;;;;;;12.52;6.60;;;19.00;99.90;;;19.27;100.00;101111.88;5248046;28;20051;-73
2022/07/23 03:31:45;;;;;;;14.55;7.72;;;19.00;99.90;;;19.22;100.00;101115.38;5248080;28;20386;-73
2022/07/23 03:34:18;;;;;;;13.48;6.68;;;18.90;99.90;;;19.20;100.00;101117.16;5248116;28;20493;-73
2022/07/23 03:36:50;;;;;;;15.07;7.63;;;18.90;99.90;;;19.18;100.00;101128.59;5248133;28;20404;-74
2022/07/23 03:39:22;;;;;;;14.27;6.78;;;18.90;99.90;;;19.14;100.00;101121.53;5247882;28;20063;-73
2022/07/23 03:41:56;;;;;;;16.27;7.93;;;18.80;99.90;;;19.12;100.00;101112.72;5248025;28;20060;-74
2022/07/23 03:44:28;;;;;;;14.35;7.80;;;18.80;99.90;;;19.08;100.00;101125.00;5248051;28;20451;-73
2022/07/23 03:47:01;;;;;;;16.33;7.25;;;18.80;99.90;;;19.06;100.00;101125.88;5249136;28;20050;-73
2022/07/23 03:49:34;;;;;;;14.93;7.13;;;18.70;99.90;;;19.02;100.00;101130.25;5247663;28;20540;-75
2022/07/23 03:52:06;;;;;;;17.45;7.25;;;18.70;99.90;;;18.99;100.00;101122.34;5248995;28;20655;-73
2022/07/23 03:54:39;;;;;;;14.98;7.32;;;18.70;99.90;;;18.97;100.00;101121.41;5247657;28;20048;-73
2022/07/23 03:57:12;;;;;;;16.27;7.88;;;18.60;99.90;;;18.94;100.00;101118.78;5247363;28;20047;-74
2022/07/23 03:59:44;;;;;;;16.42;7.28;;;18.60;99.90;;;18.92;100.00;101129.34;5283189;22;20046;-71
2022/07/23 04:02:17;;;;;;;14.48;6.82;;;18.60;99.90;;;18.90;100.00;101124.91;5185803;28;20053;-72
2022/07/23 04:04:50;;;;;;;16.60;8.82;;;18.60;99.90;;;18.87;100.00;101132.81;5185950;28;20069;-71
2022/07/23 04:07:22;;;;;;;15.10;7.35;;;18.60;99.90;;;18.83;100.00;101131.03;5187104;28;20054;-71
2022/07/23 04:09:54;;;;;;;15.02;7.93;;;18.50;99.90;;;18.82;100.00;101131.91;5185827;28;20454;-71
2022/07/23 04:12:28;;;;;;;13.27;6.28;;;18.50;99.90;;;18.79;100.00;101130.13;5186205;28;20057;-71
2022/07/23 04:15:00;;;;;;;15.38;7.25;;;18.50;99.90;;;18.78;100.00;101135.38;5185549;28;20053;-71
2022/07/23 04:17:33;;;;;;;16.42;6.75;;;18.50;99.90;;;18.75;100.00;101138.91;5184350;28;20100;-71
2022/07/23 04:20:06;;;;;;;14.60;6.72;;;18.50;99.90;;;18.75;100.00;101140.66;5185546;28;20045;-73
2022/07/23 04:22:45;;;;;;;13.18;6.30;;;18.40;99.90;;;18.70;100.00;101145.91;5185295;28;20537;-73
2022/07/23 04:25:17;;;;;;;13.60;6.68;;;18.40;99.90;;;18.69;100.00;101147.66;5173195;28;20043;-71
2022/07/23 04:27:51;;;;;;;13.63;6.90;;;18.30;99.90;;;18.69;100.00;101157.34;5164813;28;20050;-73
2022/07/23 04:30:24;;;;;;;13.57;6.63;;;18.40;99.90;;;18.69;100.00;101150.28;5164929;28;20046;-72
2022/07/23 04:32:57;;;;;;;15.15;6.50;;;18.30;99.90;;;18.70;100.00;101159.97;5164912;28;20076;-71
2022/07/23 04:35:33;;;;;;;13.07;6.63;;;18.40;99.90;;;18.71;100.00;101158.22;5165026;28;20047;-72
2022/07/23 04:38:16;;;;;;;14.35;6.85;;;18.40;99.90;;;18.70;100.00;101161.75;5164744;28;20046;-71
2022/07/23 04:40:49;;;;;;;13.75;6.93;;;18.40;99.90;;;18.68;100.00;101172.31;5164636;28;20050;-72
2022/07/23 04:43:23;;;;;;;12.93;6.28;;;18.40;99.90;;;18.69;100.00;101186.38;5164808;28;20049;-71
2022/07/23 04:45:57;;;;;;;14.48;6.57;;;18.30;99.90;;;18.68;100.00;101188.16;5164760;28;20049;-71
2022/07/23 04:48:30;;;;;;;14.80;6.65;;;18.30;99.90;;;18.69;100.00;101189.03;5164456;28;20050;-72
2022/07/23 04:51:13;;;;;;;13.95;7.57;;;18.30;99.90;;;18.70;100.00;101189.03;5164622;28;20419;-72
2022/07/23 04:53:45;;;;;;;14.73;6.63;;;18.40;99.90;;;18.73;100.00;101184.66;5164527;28;20042;-72
2022/07/23 04:56:17;;;;;;;14.05;6.53;;;18.40;99.90;;;18.78;100.00;101190.84;5164539;28;20050;-72
2022/07/23 04:58:51;;;;;;;14.25;6.50;;;18.40;99.90;;;18.85;100.00;101197.97;5164114;28;20046;-72
2022/07/23 05:01:24;;;;;;;14.57;7.40;;;18.50;99.90;;;19.01;100.00;101197.19;5180029;28;20046;-71
2022/07/23 05:03:56;;;;;;;16.67;7.75;;;18.60;99.90;;;19.18;100.00;101203.47;5184790;28;20042;-73
2022/07/23 05:06:29;;;;;;;17.30;8.23;;;18.80;99.90;;;19.36;100.00;101200.03;5184594;28;20053;-72
2022/07/23 05:09:01;;;;;;;17.83;8.07;;;18.90;99.90;;;19.47;100.00;101200.09;5184498;28;20152;-72
2022/07/23 05:11:35;;;;;;;17.67;8.25;;;19.10;99.90;;;19.50;100.00;101206.28;5184775;28;20084;-72
2022/07/23 05:14:08;;;;;;;15.65;7.95;;;19.10;99.90;;;19.52;100.00;101208.94;5184706;28;20034;-73
2022/07/23 05:16:41;;;;;;;16.90;8.27;;;19.10;99.90;;;19.50;100.00;101208.06;5184510;28;20423;-72
2022/07/23 05:19:18;;;;;;;15.80;7.50;;;19.10;99.90;;;19.47;100.00;101210.66;5184205;28;20056;-72
2022/07/23 05:21:51;;;;;;;16.42;7.78;;;19.10;99.90;;;19.44;100.00;101210.66;5184381;28;20185;-74
2022/07/23 05:24:24;;;;;;;16.13;7.80;;;19.10;99.90;;;19.39;100.00;101204.47;5184275;28;20042;-72
2022/07/23 05:26:57;;;;;;;15.27;7.18;;;19.10;99.90;;;19.41;100.00;101210.63;5184266;28;20048;-72
2022/07/23 05:29:31;;;;;;;18.08;7.82;;;19.10;99.90;;;19.47;100.00;101205.38;5183884;28;20046;-72
2022/07/23 05:32:03;;;;;;;17.08;7.85;;;19.10;99.90;;;19.52;100.00;101211.56;5184102;28;20048;-72
2022/07/23 05:34:37;;;;;;;17.63;8.57;;;19.10;99.90;;;19.59;100.00;101216.03;5184068;28;20045;-72
2022/07/23 05:37:09;;;;;;;19.70;8.90;;;19.20;99.90;;;19.64;100.00;101211.66;5184055;28;20132;-72
2022/07/23 05:39:41;;;;;;;15.07;7.32;;;19.30;99.90;;;19.66;100.00;101212.56;5184439;28;20058;-72
2022/07/23 05:42:14;;;;;;;19.88;8.30;;;19.30;99.90;;;19.66;100.00;101212.56;5184009;28;20050;-72
2022/07/23 05:44:48;;;;;;;17.88;8.88;;;19.30;99.90;;;19.67;100.00;101224.88;5184109;28;20441;-73
2022/07/23 05:47:20;;;;;;;16.23;7.75;;;19.30;99.90;;;19.68;100.00;101228.41;5184947;28;20042;-73
2022/07/23 05:49:53;;;;;;;14.70;7.57;;;19.30;99.90;;;19.67;100.00;101235.47;5183946;28;20042;-73
2022/07/23 05:52:25;;;;;;;15.25;7.18;;;19.30;99.90;;;19.65;100.00;101229.31;5182260;28;20046;-72
2022/07/23 05:55:16;;;;;;;14.65;7.25;;;19.30;99.90;;;19.61;100.00;101229.28;5187935;28;20097;-72
2022/07/23 05:57:48;;;;;;;13.80;7.00;;;19.30;99.90;;;19.57;100.00;101230.13;5178107;28;20053;-71
2022/07/23 06:00:22;;;;;;;12.60;6.25;;;19.30;99.90;;;19.59;100.00;101231.91;5183927;28;20129;-70
2022/07/23 06:02:54;;;;;;;14.82;6.95;;;19.30;99.90;;;19.63;100.00;101228.41;5183994;28;20445;-70
2022/07/23 06:05:27;;;;;;;16.02;7.50;;;19.30;99.90;;;19.67;100.00;101230.19;5187442;28;20051;-70
2022/07/23 06:08:01;;;;;;;14.18;7.57;;;19.30;99.90;;;19.68;100.00;101231.94;5220505;28;20045;-70
2022/07/23 06:10:35;;;;;;;14.93;7.50;;;19.30;99.90;;;19.76;100.00;101224.94;5220811;28;20092;-71
2022/07/23 06:13:07;;;;;;;16.00;7.18;;;19.40;99.90;;;19.92;100.00;101225.88;5212081;28;20042;-70
2022/07/23 06:15:41;;;;;;;15.80;7.50;;;19.50;99.90;;;20.13;100.00;101232.97;5197275;28;20494;-70
2022/07/23 06:18:13;;;;;;;19.17;8.20;;;19.60;99.90;;;20.38;100.00;101233.91;5203230;28;20038;-70
2022/07/23 06:20:45;;;;;;;18.20;8.20;;;19.80;99.90;;;20.62;100.00;101222.50;5203178;28;20072;-70
2022/07/23 06:23:18;;;;;;;16.90;8.25;;;20.00;99.90;;;20.79;100.00;101233.97;5203073;28;20033;-70
2022/07/23 06:25:50;;;;;;;17.55;7.85;;;20.20;99.90;;;20.89;100.00;101234.00;5203251;28;20100;-70
2022/07/23 06:28:22;;;;;;;12.25;6.70;;;20.30;99.90;;;20.86;100.00;101235.78;5203028;28;20136;-70
2022/07/23 06:30:56;;;;;;;13.27;6.70;;;20.30;99.90;;;20.82;100.00;101239.28;5201080;28;20048;-70
2022/07/23 06:33:29;;;;;;;13.70;6.93;;;20.30;99.90;;;20.94;100.00;101242.81;5204664;28;20044;-69
2022/07/23 06:36:01;;;;;;;16.13;7.43;;;20.40;99.90;;;21.05;100.00;101239.25;5204890;28;20061;-69
2022/07/23 06:38:33;;;;;;;15.73;7.28;;;20.50;99.90;;;21.29;100.00;101238.38;5203476;28;20049;-70
2022/07/23 06:41:06;;;;;;;15.57;7.57;;;20.60;99.90;;;21.58;100.00;101248.91;5207449;28;20049;-70
2022/07/23 06:43:38;;;;;;;15.77;7.63;;;20.90;99.90;;;21.89;100.00;101238.16;5208110;28;20402;-71
2022/07/23 06:46:15;;;;;;;14.13;7.03;;;21.20;99.90;;;22.19;99.96;101239.81;5208362;28;20073;-70
2022/07/23 06:48:47;;;;;;;14.10;7.43;;;21.40;99.90;;;22.45;96.92;101242.31;5207691;28;20046;-71
2022/07/23 06:51:19;;;;;;;14.32;6.68;;;21.70;99.90;;;22.60;95.56;101243.97;5208026;28;20057;-70
2022/07/23 06:53:51;;;;;;;12.50;6.47;;;21.80;99.90;;;22.74;93.71;101252.69;5209529;28;20054;-70
2022/07/23 06:56:24;;;;;;;13.07;6.25;;;22.00;99.90;;;22.95;91.81;101256.97;5208170;28;20144;-70
2022/07/23 06:58:56;;;;;;;14.13;6.57;;;22.20;99.90;;;23.30;89.64;101261.97;5207749;28;20042;-70
2022/07/23 07:01:29;;;;;;;15.93;6.13;;;22.50;99.90;;;23.51;84.83;101264.41;5207928;28;20100;-71
2022/07/23 07:04:01;;;;;;;12.90;5.82;;;22.70;99.90;;;23.67;85.17;101265.16;5208243;28;20045;-70
2022/07/23 07:06:34;;;;;;;12.45;5.63;;;22.90;99.90;;;23.93;84.05;101272.84;5209243;28;20080;-71
2022/07/23 07:09:06;;;;;;;11.50;5.55;;;23.10;99.90;;;24.15;81.92;101275.22;5207807;28;20049;-71
2022/07/23 07:11:38;;;;;;;10.85;5.50;;;23.30;99.90;;;24.13;80.08;101274.34;5208863;28;20493;-70
2022/07/23 07:14:10;;;;;;;10.77;5.57;;;23.30;99.90;;;24.09;81.11;101273.50;5208889;28;20048;-71
2022/07/23 07:16:44;;;;;;;10.38;5.18;;;23.40;99.90;;;24.24;81.85;101272.41;5209053;28;20045;-70
2022/07/23 07:19:16;;;;;;;11.88;5.63;;;23.40;99.90;;;24.30;79.08;101277.66;5207390;28;20401;-69
2022/07/23 07:21:48;;;;;;;10.68;5.35;;;23.50;99.60;;;24.16;78.24;101284.94;5209178;28;20100;-70
2022/07/23 07:24:20;;;;;;;8.48;4.82;;;23.40;99.10;;;24.13;79.29;101277.03;5209032;28;20049;-70
2022/07/23 07:26:52;;;;;;;8.60;4.90;;;23.40;99.30;;;24.31;80.25;101284.72;5208896;28;20041;-69
2022/07/23 07:29:24;;;;;;;11.00;5.00;;;23.50;99.70;;;24.55;78.88;101279.09;5208523;28;20541;-70
2022/07/23 07:31:58;;;;;;;8.60;4.28;;;23.70;99.40;;;24.70;75.87;101279.75;5207360;28;20049;-70
2022/07/23 07:34:30;;;;;;;11.02;5.78;;;23.80;98.30;;;24.94;76.27;101287.34;5208686;28;20382;-70
2022/07/23 07:37:02;;;;;;;8.30;4.50;;;24.10;98.20;;;25.28;75.64;101281.47;5208578;28;20052;-71
2022/07/23 07:39:34;;;;;;;10.90;5.22;;;24.30;98.10;;;25.61;74.38;101280.81;5208676;28;20130;-70
2022/07/23 07:42:07;;;;;;;7.85;4.00;;;24.60;97.90;;;25.89;73.43;101291.00;5208381;28;20041;-70
2022/07/23 07:44:39;;;;;;;8.75;4.60;;;24.90;97.20;;;26.00;69.80;101283.63;5208398;28;20047;-70
2022/07/23 07:47:13;;;;;;;7.32;3.63;;;25.00;95.60;;;26.01;70.14;101296.06;5206267;28;20494;-62
2022/07/23 07:49:46;;;;;;;8.98;4.20;;;25.00;95.30;;;26.10;71.18;101287.84;5204734;28;20038;-60
2022/07/23 07:52:18;;;;;;;9.05;4.22;;;25.10;95.60;;;26.31;70.60;101288.28;5205519;28;20049;-62
2022/07/23 07:54:50;;;;;;;9.23;4.55;;;25.20;95.40;;;26.41;68.13;101295.25;5205936;28;20069;-57
2022/07/23 07:57:22;;;;;;;9.93;4.18;;;25.30;94.10;;;26.52;69.09;101293.16;5207657;28;20063;-58
2022/07/23 07:59:54;;;;;;;7.90;4.15;;;25.40;94.30;;;26.62;69.09;101289.38;5207835;28;20136;-59
2022/07/23 08:02:28;;;;;;;6.93;3.88;;;25.50;94.40;;;26.66;68.75;101299.06;5207700;28;20045;-60
2022/07/23 08:05:00;;;;;;;8.75;4.32;;;25.50;94.10;;;26.57;68.93;101299.28;5207794;28;20045;-60
2022/07/23 08:07:32;;;;;;;8.40;4.10;;;25.50;94.10;;;26.50;67.76;101300.34;5203002;28;20053;-61
2022/07/23 08:10:06;;;;;;;7.88;4.60;;;25.40;93.50;;;26.65;67.61;101305.34;5187272;28;20056;-60
2022/07/23 08:12:44;;;;;;;7.68;4.18;;;25.40;93.60;;;26.72;67.06;101308.75;5186948;28;20049;-60
2022/07/23 08:15:18;;;;;;;8.35;4.13;;;25.40;93.30;;;26.58;66.93;101306.41;5207165;28;20068;-72
2022/07/23 08:17:52;;;;;;;7.90;3.92;;;25.20;93.10;;;26.41;67.49;101312.16;5198773;28;20056;-71
2022/07/23 08:20:26;;;;;;;6.50;3.53;;;25.10;93.30;;;26.21;67.92;101307.22;5185912;28;20184;-68
2022/07/23 08:23:00;;;;;;;7.00;4.10;;;25.00;93.30;;;26.47;67.64;101305.75;5186986;28;20414;-70
2022/07/23 08:25:35;;;;;;;10.45;3.83;;;25.10;93.40;;;26.73;66.44;101303.38;5186954;28;20045;-72
2022/07/23 08:28:10;;;;;;;7.72;4.28;;;25.10;93.00;;;27.42;64.47;101314.16;5187278;28;20046;-69
2022/07/23 08:30:44;;;;;;;9.70;4.50;;;25.40;92.70;;;28.07;62.20;101319.47;5185829;28;20551;-68
2022/07/23 08:33:19;;;;;;;8.18;4.05;;;25.70;92.00;;;27.99;62.48;101326.88;5191293;28;20064;-67
2022/07/23 08:35:52;;;;;;;7.18;4.00;;;25.80;91.80;;;27.82;63.24;101324.66;5205709;28;20048;-71
2022/07/23 08:38:25;;;;;;;9.75;3.90;;;25.70;91.80;;;27.71;63.39;101333.03;5204487;28;20465;-64
2022/07/23 08:40:58;;;;;;;7.15;4.47;;;25.70;91.70;;;27.34;63.47;101334.88;5197111;28;20048;-64
2022/07/23 08:43:34;;;;;;;6.35;4.30;;;25.60;91.20;;;26.82;64.08;101336.16;5200061;28;20053;-65
2022/07/23 08:46:06;;;;;;;7.38;4.25;;;25.40;91.00;;;26.44;64.88;101335.25;5205328;28;20045;-65
2022/07/23 08:48:40;;;;;;;8.77;4.30;;;25.20;91.00;;;26.24;65.90;101333.84;5201714;28;20053;-64
2022/07/23 08:51:12;;;;;;;8.15;4.68;;;25.00;91.20;;;27.06;64.98;101327.56;5186885;28;20074;-65
2022/07/23 08:53:46;;;;;;;8.75;4.45;;;25.30;91.60;;;28.48;59.75;101336.13;5186224;28;20045;-65
2022/07/23 08:56:18;;;;;;;7.82;3.47;;;26.10;89.90;;;29.67;57.33;101342.97;5186223;28;20525;-65
2022/07/23 08:58:50;;;;;;;6.85;3.47;;;27.00;87.20;;;31.07;54.46;101339.34;5185921;28;20056;-65
2022/07/23 09:01:23;;;;;;;6.05;3.60;;;27.90;84.20;;;32.32;51.38;101346.38;5191828;28;20332;-66
2022/07/23 09:03:56;;;;;;;7.80;3.33;;;28.90;80.00;;;33.40;48.78;101348.31;5201561;28;20538;-66
2022/07/23 09:06:28;;;;;;;4.85;3.30;;;29.70;75.90;;;34.18;46.70;101346.88;5199716;28;20045;-65
2022/07/23 09:09:18;;;;;;;6.07;3.35;;;30.40;71.80;;;34.50;46.66;101345.09;5206142;28;20045;-65
2022/07/23 09:12:04;;;;;;;5.70;3.67;;;30.80;69.90;;;34.69;46.13;101337.66;5206362;28;20111;-65
2022/07/23 09:14:41;;;;;;;5.88;3.45;;;31.00;68.80;;;35.22;45.12;101336.38;5201676;28;20049;-66
2022/07/23 09:17:15;;;;;;;5.05;3.00;;;31.40;67.40;;;35.61;44.16;101332.25;5199393;28;20035;-67
2022/07/23 09:19:48;;;;;;;;;;;31.70;65.90;;;35.87;43.85;101339.63;5198235;28;20046;-65
2022/07/23 09:22:23;;;;;;;5.63;3.30;;;31.90;64.50;;;35.01;45.09;101343.06;5202896;28;19976;-65
2022/07/23 09:25:13;;;;;;;6.75;3.88;;;31.70;64.40;;;34.24;46.37;101343.81;5198090;28;20523;-66
2022/07/23 09:27:54;;;;;;;6.28;3.35;;;31.30;64.60;;;33.61;46.87;101341.78;5202251;28;20053;-64
2022/07/23 09:30:29;;;;;;;5.25;3.42;;;30.90;64.80;;;33.09;47.59;101344.44;5197086;28;20045;-65
2022/07/23 09:33:09;;;;;;;5.38;3.53;;;30.60;65.40;;;32.84;47.70;101346.59;5199892;28;20048;-65
2022/07/23 09:35:49;;;;;;;5.47;2.95;;;30.40;65.00;;;32.50;48.36;101342.84;5198560;28;20046;-64
2022/07/23 09:38:23;;;;;;;4.65;2.85;;;30.30;65.20;;;32.12;49.12;101344.63;5185446;28;20049;-59
2022/07/23 09:41:09;;;;;;;6.03;3.38;;;30.20;65.40;;;31.66;50.22;101332.34;5185598;28;20046;-67
2022/07/23 09:43:41;;;;;;;7.38;4.25;;;30.10;65.90;;;31.19;51.15;101337.94;5185456;28;20056;-66
2022/07/23 09:46:23;;;;;;;5.55;3.42;;;29.80;66.10;;;30.77;51.89;101333.38;5185500;28;20239;-66
2022/07/23 09:48:57;;;;;;;5.38;3.17;;;29.50;66.70;;;30.43;53.04;101333.84;5185175;28;20556;-67
2022/07/23 09:51:35;;;;;;;6.13;3.45;;;29.20;67.60;;;30.19;54.04;101338.34;5198208;28;20145;-67
2022/07/23 09:54:21;;;;;;;6.10;4.00;;;29.00;68.20;;;29.86;54.54;101332.41;5202964;28;20139;-64
2022/07/23 09:56:55;;;;;;;6.47;3.80;;;28.80;68.80;;;29.53;54.53;101339.88;5202726;28;20037;-66
2022/07/23 09:59:30;;;;;;;4.63;3.38;;;28.40;68.90;;;29.30;55.03;101332.59;5198405;28;20564;-66
2022/07/23 10:02:04;;;;;;;7.05;3.45;;;28.20;69.30;;;29.21;56.11;101331.09;5222312;23;20057;-79
2022/07/23 10:04:41;;;;;;;7.55;4.45;;;28.10;70.10;;;29.06;55.51;101334.31;5209529;28;20046;-82
2022/07/23 10:07:23;;;;;;;6.13;3.83;;;28.00;69.80;;;28.86;56.23;101333.13;5207910;28;20037;-79
2022/07/23 10:10:16;;;;;;;5.78;4.20;;;27.80;70.40;;;28.70;56.82;101334.56;5213265;28;20108;-79
2022/07/23 10:15:58;;;;;;;5.60;3.83;;;27.60;71.20;;;28.56;57.45;101328.72;5227353;28;20529;-84
2022/07/23 10:18:31;;;;;;;6.07;4.07;;;27.50;71.40;;;28.56;57.33;101318.91;5215581;28;20045;-86
2022/07/23 10:21:09;;;;;;;5.35;3.67;;;27.50;71.70;;;28.44;57.68;101318.41;5216447;28;20037;-82
2022/07/23 10:23:59;;;;;;;5.72;4.03;;;27.50;72.60;;;28.41;57.32;101315.81;5216090;28;20053;-80
2022/07/23 10:26:37;;;;;;;6.30;3.75;;;27.40;71.80;;;28.40;56.48;101317.63;5219247;28;20048;-85
2022/07/23 10:29:21;;;;;;;5.20;3.30;;;27.40;70.90;;;28.37;56.92;101321.28;5218890;28;20101;-81
2022/07/23 10:32:01;;;;;;;4.72;3.42;;;27.40;71.30;;;28.38;57.28;101320.34;5218348;28;20049;-81
2022/07/23 10:34:45;;;;;;;4.03;2.95;;;27.40;71.30;;;28.48;56.94;101309.31;5220438;28;20057;-84
2022/07/23 10:37:24;;;;;;;4.80;3.28;;;27.50;71.30;;;28.67;56.27;101305.13;5219142;28;20050;-84
2022/07/23 10:40:17;;;;;;;5.20;3.20;;;27.60;71.00;;;28.86;55.84;101300.91;5218626;28;20046;-80